Data for 03/04/2007

Time Sea-Level Adjusted Pressure Absolute Pressure Temperature Relative Humidity Dew Point   
(mb) (inHg) (mb) (inHg) (C) (F) (%) (C) (F)
00:05 1028 30.36 857 25.31 1.8 35.2 57 -5.8 21.6
00:10 1028 30.36 857 25.31 1.6 34.8 58 -5.9 21.4
00:15 1028 30.36 857 25.31 1.5 34.7 57 -6.2 20.9
00:20 1028 30.36 857 25.31 1.4 34.5 57 -6.1 20.9
00:25 1028 30.36 857 25.31 1.3 34.3 56 -6.6 20.2
00:30 1028 30.36 857 25.31 1.1 34.1 56 -6.6 20.2
00:35 1028 30.36 857 25.31 1 33.8 58 -6.4 20.4
00:40 1028 30.36 857 25.31 0.9 33.6 59 -6.2 20.8
00:45 1028 30.36 857 25.31 0.9 33.5 60 -6.1 21
00:50 1028 30.36 857 25.31 0.7 33.2 60 -6.3 20.7
00:55 1028 30.36 857 25.31 0.6 33.1 59 -6.5 20.3
01:00 1028 30.36 857 25.31 0.5 32.9 60 -6.3 20.6
01:05 1028 30.36 857 25.31 0.3 32.5 63 -5.9 21.3
01:10 1028 30.36 857 25.31 0.2 32.4 62 -6.2 20.9
01:15 1028 30.36 857 25.31 0.3 32.6 62 -6.2 20.9
01:20 1028 30.36 857 25.31 0.4 32.8 62 -6.1 21
01:25 1028 30.36 857 25.31 0.3 32.6 62 -6.2 20.9
01:30 1028 30.36 857 25.31 0.2 32.3 61 -6.4 20.5
01:35 1028 30.36 857 25.31 0.1 32.3 60 -6.6 20.1
01:40 1028 30.36 857 25.31 -0 32 60 -6.8 19.8
01:45 1028 30.36 857 25.31 -0.2 31.7 61 -6.8 19.8
01:50 1028 30.36 857 25.31 -0.3 31.5 62 -6.6 20
01:55 1028 30.36 857 25.31 -0.5 31.1 62 -6.8 19.8
02:00 1028 30.36 857 25.31 -0.8 30.6 62 -7.1 19.1
02:05 1028 30.36 857 25.31 -1.1 30.1 63 -7.3 18.9
02:10 1028 30.36 857 25.31 -1.3 29.7 63 -7.5 18.6
02:15 1028 30.36 857 25.31 -1.4 29.4 63 -7.7 18.2
02:20 1028 30.36 857 25.31 -1.5 29.3 63 -7.6 18.3
02:25 1028 30.36 857 25.31 -1.6 29.1 64 -7.6 18.4
02:30 1028 30.36 857 25.31 -2 28.4 66 -7.6 18.3
02:35 1028 30.36 857 25.31 -2 28.5 65 -7.7 18.2
02:40 1028 30.36 857 25.31 -1.9 28.7 65 -7.6 18.3
02:45 1028 30.36 857 25.31 -1.9 28.5 66 -7.5 18.4
02:50 1028 30.36 857 25.31 -2.3 27.8 67 -7.6 18.4
02:55 1028 30.36 857 25.31 -2.3 27.9 66 -7.7 18.2
03:00 1028 30.36 857 25.31 -2.2 28.1 66 -7.6 18.3
03:05 1028 30.36 857 25.31 -2.7 27.1 71 -7.2 19
03:10 1028 30.36 857 25.31 -3.1 26.5 71 -7.6 18.4
03:15 1028 30.36 857 25.31 -2.9 26.8 70 -7.6 18.2
03:20 1028 30.36 857 25.31 -2.9 26.8 69 -7.7 18.1
03:25 1028 30.36 857 25.31 -2.9 26.9 69 -7.7 18.1
03:30 1028 30.36 857 25.31 -2.9 26.9 70 -7.6 18.3
03:35 1028 30.36 857 25.31 -2.7 27.1 70 -7.5 18.4
03:40 1028 30.36 857 25.31 -2.1 28.2 66 -7.7 18.2
03:45 1028 30.36 857 25.31 -2.2 28.1 66 -7.8 18
03:50 1028 30.36 857 25.31 -2 28.3 64 -7.9 17.7
03:55 1028 30.36 857 25.31 -2.4 27.7 68 -7.4 18.6
04:00 1028 30.36 857 25.31 -3 26.7 69 -7.9 17.8
04:05 1028 30.36 857 25.31 -2.6 27.4 65 -8.2 17.2
04:10 1028 30.36 857 25.31 -2.5 27.5 65 -8.2 17.3
04:15 1028 30.36 857 25.31 -2.7 27.2 66 -8.1 17.4
04:20 1028 30.36 857 25.31 -2.8 26.9 67 -8.2 17.2
04:25 1028 30.36 857 25.31 -2.9 26.7 67 -8.2 17.3
04:30 1028 30.36 857 25.31 -3 26.5 69 -8 17.5
04:35 1028 30.36 857 25.31 -3.1 26.4 70 -7.9 17.8
04:40 1028 30.36 857 25.31 -3.2 26.2 72 -7.6 18.3
04:45 1028 30.36 857 25.31 -3.3 26.1 72 -7.7 18.2
04:50 1028 30.36 857 25.31 -3.5 25.7 70 -8.2 17.3
04:55 1028 30.36 857 25.31 -3.4 25.9 70 -8.1 17.4
05:00 1028 30.36 857 25.31 -3.5 25.8 68 -8.5 16.7
05:05 1028 30.36 857 25.31 -3.7 25.3 68 -8.8 16.2
05:10 1028 30.36 857 25.31 -3.6 25.5 67 -8.9 16
05:15 1028 30.36 857 25.31 -3.7 25.3 67 -9 15.8
05:20 1028 30.36 857 25.31 -3.7 25.4 66 -9 15.8
05:25 1028 30.36 857 25.31 -3.7 25.4 66 -9.1 15.7
05:30 1028 30.36 857 25.31 -3.6 25.4 67 -9 15.9
05:35 1028 30.36 857 25.31 -3.7 25.3 67 -9 15.8
05:40 1028 30.36 857 25.31 -3.8 25.2 66 -9.2 15.5
05:45 1028 30.36 857 25.31 -3.9 25 67 -9.1 15.5
05:50 1028 30.36 857 25.31 -4.1 24.6 69 -9 15.8
05:55 1028 30.36 857 25.31 -4 24.9 69 -8.9 16
06:00 1028 30.36 857 25.31 -3.8 25.2 68 -8.9 16.1
06:05 1028 30.36 857 25.31 -3.5 25.8 65 -9.1 15.6
06:10 1028 30.36 857 25.31 -3.9 24.9 69 -8.7 16.3
06:15 1028 30.36 857 25.31 -3.9 25 67 -9.1 15.6
06:20 1028 30.36 857 25.31 -3.9 25 68 -8.9 15.9
06:25 1028 30.36 857 25.31 -3.5 25.8 66 -8.8 16.1
06:30 1028 30.36 857 25.31 -3.6 25.5 68 -8.6 16.5
06:35 1028 30.36 857 25.31 -3.7 25.3 68 -8.7 16.4
06:40 1028 30.36 857 25.31 -3.7 25.3 68 -8.8 16.2
06:45 1028 30.36 857 25.31 -3.5 25.6 68 -8.6 16.5
06:50 1028 30.36 857 25.31 -4.1 24.7 72 -8.5 16.8
06:55 1028 30.36 857 25.31 -4.8 23.4 75 -8.6 16.5
07:00 1028 30.36 857 25.31 -4.6 23.6 75 -8.4 16.8
07:05 1028 30.36 857 25.31 -4.7 23.5 76 -8.3 17.1
07:10 1028 30.36 857 25.31 -4.9 23.2 79 -8 17.5
07:15 1028 30.36 857 25.31 -4.7 23.5 78 -8.1 17.5
07:20 1028 30.36 857 25.31 -4.7 23.5 77 -8.1 17.5
07:25 1028 30.36 857 25.31 -4.5 23.8 78 -7.8 17.9
07:30 1028 30.36 857 25.31 -4.4 24 80 -7.4 18.6
07:35 1028 30.36 857 25.31 -4.3 24.2 77 -7.8 18
07:40 1028 30.36 857 25.31 -4.3 24.2 77 -7.8 18
07:45 1028 30.36 857 25.31 -4.2 24.4 76 -7.9 17.8
07:50 1028 30.36 857 25.31 -3.9 25 73 -8 17.6
07:55 1028 30.36 857 25.31 -3.3 26.2 70 -7.9 17.7
08:00 1028 30.36 857 25.31 -3 26.6 69 -7.8 17.9
08:05 1028 30.36 857 25.31 -2.7 27.1 69 -7.6 18.3
08:10 1028 30.36 857 25.31 -2.2 28.1 68 -7.4 18.7
08:15 1028 30.36 857 25.31 -1.9 28.6 67 -7.3 18.9
08:20 1028 30.36 857 25.31 -1.7 29 65 -7.3 18.8
08:25 1028 30.36 857 25.31 -1.2 29.9 63 -7.4 18.7
08:30 1028 30.36 857 25.31 -0.7 30.8 62 -7.2 19.1
08:35 1028 30.36 857 25.31 -0.8 30.5 63 -7 19.4
08:40 1028 30.36 857 25.31 -1.4 29.4 65 -7.1 19.2
08:45 1028 30.36 857 25.31 -1.2 29.8 64 -7.3 18.9
08:50 1028 30.36 857 25.31 -0.7 30.7 62 -7.1 19.3
08:55 1028 30.36 857 25.31 -0.1 31.8 59 -7.1 19.2
09:00 1028 30.36 857 25.31 0.3 32.5 58 -7 19.4
09:05 1028 30.36 857 25.31 0.6 33.1 58 -6.6 20.1
09:10 1028 30.36 857 25.31 0.9 33.5 58 -6.6 20.1
09:15 1028 30.36 857 25.31 1.5 34.7 54 -6.7 19.9
09:20 1028 30.36 857 25.31 2.4 36.2 52 -6.6 20.1
09:25 1028 30.36 857 25.31 2.4 36.4 53 -6.3 20.7
09:30 1028 30.36 857 25.31 2.8 37 52 -6.2 20.8
09:35 1028 30.36 857 25.31 3.3 38 48 -6.6 20.1
09:40 1028 30.36 857 25.31 4.2 39.5 47 -6.2 20.8
09:45 1028 30.36 857 25.31 4.3 39.8 46 -6.2 20.8
09:50 1028 30.36 857 25.31 4.1 39.4 46 -6.5 20.2
09:55 1028 30.36 857 25.31 4.2 39.6 46 -6.4 20.5
10:00 1028 30.36 857 25.31 3.9 39 46 -6.7 19.9
10:05 1028 30.36 857 25.31 4.2 39.6 45 -6.6 20.1
10:10 1028 30.36 857 25.31 4 39.2 47 -6.4 20.5
10:15 1028 30.36 857 25.31 4.2 39.6 45 -6.7 20
10:20 1028 30.36 857 25.31 4.4 39.9 43 -7 19.4
10:25 1028 30.36 857 25.31 4.3 39.7 45 -6.6 20.1
10:30 1028 30.36 857 25.31 4.4 39.9 45 -6.6 20
10:35 1028 30.36 857 25.31 4.4 39.8 45 -6.7 20
10:40 1028 30.36 857 25.31 5.1 41.2 42 -6.8 19.8
10:45 1028 30.36 857 25.31 5.3 41.5 41 -6.9 19.5
10:50 1028 30.36 857 25.31 5.5 41.8 41 -6.8 19.8
10:55 1028 30.36 857 25.31 5.3 41.6 41 -7 19.5
11:00 1028 30.36 857 25.31 5.8 42.4 39 -7.2 19
11:05 1028 30.36 857 25.31 5.4 41.8 42 -6.6 20.1
11:10 1028 30.36 857 25.31 5.6 42.2 41 -6.7 20
11:15 1027 30.33 857 25.31 5.6 42 42 -6.4 20.4
11:20 1028 30.36 857 25.31 6.1 42.9 40 -6.7 20
11:25 1027 30.33 857 25.31 6.8 44.3 39 -6.3 20.7
11:30 1027 30.33 857 25.31 6.4 43.5 42 -5.5 22.2
11:35 1027 30.33 856 25.28 6.3 43.4 42 -5.7 21.7
11:40 1027 30.33 856 25.28 6.6 43.9 41 -5.8 21.5
11:45 1027 30.33 856 25.28 6.6 43.9 41 -5.7 21.8
11:50 1027 30.33 856 25.28 7.2 45 39 -5.7 21.8
11:55 1027 30.33 856 25.28 7 44.6 40 -5.7 21.7
12:00 1027 30.33 856 25.28 6.6 43.9 42 -5.4 22.2
12:05 1027 30.33 856 25.28 6 42.8 43 -5.7 21.7
12:10 1027 30.33 856 25.28 6.1 43 43 -5.7 21.8
12:15 1027 30.33 856 25.28 6.6 43.8 43 -5.1 22.9
12:20 1027 30.33 856 25.28 6.9 44.5 42 -5.2 22.7
12:25 1027 30.33 856 25.28 6.5 43.8 42 -5.4 22.3
12:30 1027 30.33 856 25.28 7.1 44.8 41 -5.3 22.4
12:35 1027 30.33 856 25.28 7.7 45.9 38 -5.8 21.5
12:40 1027 30.33 856 25.28 8 46.4 38 -5.4 22.3
12:45 1027 30.33 856 25.28 7.9 46.3 39 -5.1 22.8
12:50 1027 30.33 856 25.28 7.7 45.9 38 -5.8 21.5
12:55 1026 30.3 856 25.28 8 46.3 40 -4.8 23.3
13:00 1026 30.3 856 25.28 7.7 45.8 40 -5.2 22.6
13:05 1026 30.3 856 25.28 8 46.4 39 -5.1 22.9
13:10 1026 30.3 856 25.28 7.9 46.3 39 -5.2 22.6
13:15 1026 30.3 856 25.28 7.7 45.8 40 -5.1 22.8
13:20 1026 30.3 855 25.25 7.6 45.6 41 -4.8 23.4
13:25 1026 30.3 856 25.28 8.1 46.5 38 -5.5 22.2
13:30 1026 30.3 855 25.25 8.3 46.9 38 -5.2 22.6
13:35 1026 30.3 855 25.25 8.4 47.1 37 -5.5 22.2
13:40 1026 30.3 855 25.25 8.7 47.6 36 -5.7 21.7
13:45 1026 30.3 855 25.25 8.3 46.9 38 -5.2 22.7
13:50 1026 30.3 855 25.25 7.9 46.2 36 -6.2 20.8
13:55 1026 30.3 855 25.25 7.6 45.6 38 -5.9 21.5
14:00 1026 30.3 855 25.25 7.7 45.9 42 -4.4 24.1
14:05 1026 30.3 855 25.25 8 46.5 40 -4.7 23.6
14:10 1026 30.3 855 25.25 8.2 46.7 40 -4.5 23.9
14:15 1026 30.3 855 25.25 8.1 46.5 38 -5.5 22
14:20 1026 30.3 855 25.25 8.7 47.6 36 -5.7 21.7
14:25 1026 30.3 855 25.25 8.8 47.9 40 -4.1 24.5
14:30 1026 30.3 855 25.25 8.3 46.9 38 -5.1 22.8
14:35 1026 30.3 855 25.25 8.3 46.9 39 -4.8 23.4
14:40 1026 30.3 855 25.25 9 48.2 37 -4.8 23.3
14:45 1026 30.3 855 25.25 8.7 47.7 39 -4.6 23.8
14:50 1026 30.3 855 25.25 9.1 48.3 37 -4.8 23.4
14:55 1026 30.3 855 25.25 9.5 49.2 36 -4.9 23.2
15:00 1025 30.27 855 25.25 9.6 49.3 37 -4.2 24.4
15:05 1025 30.27 855 25.25 9.5 49 38 -4 24.8
15:10 1025 30.27 855 25.25 9.4 48.8 39 -3.8 25.2
15:15 1025 30.27 855 25.25 8.4 47.1 42 -3.6 25.5
15:20 1025 30.27 855 25.25 8 46.4 42 -4.1 24.7
15:25 1025 30.27 854 25.22 9.3 48.7 38 -4.4 24.1
15:30 1025 30.27 855 25.25 9.8 49.7 38 -3.9 25
15:35 1025 30.27 854 25.22 9.5 49.1 38 -4 24.8
15:40 1025 30.27 854 25.22 9.6 49.2 38 -4.2 24.5
15:45 1025 30.27 854 25.22 9.5 49.2 38 -4.1 24.6
15:50 1025 30.27 854 25.22 9.2 48.6 37 -4.7 23.6
15:55 1025 30.27 854 25.22 9 48.3 38 -4.5 24
16:00 1025 30.27 854 25.22 8.8 47.9 39 -4.2 24.5
16:05 1025 30.27 854 25.22 8.7 47.6 40 -4.2 24.4
16:10 1025 30.27 854 25.22 8.7 47.6 40 -4.2 24.5
16:15 1025 30.27 854 25.22 9 48.1 37 -5.1 22.8
16:20 1025 30.27 854 25.22 9.1 48.3 37 -4.7 23.5
16:25 1025 30.27 854 25.22 8.7 47.6 40 -4 24.7
16:30 1025 30.27 854 25.22 8.7 47.7 40 -4 24.7
16:35 1025 30.27 854 25.22 8.8 47.9 42 -3.5 25.7
16:40 1025 30.27 854 25.22 8.6 47.5 41 -3.8 25.1
16:45 1025 30.27 854 25.22 8.1 46.5 43 -3.7 25.4
16:50 1025 30.27 854 25.22 7.7 45.8 43 -4 24.8
16:55 1025 30.27 854 25.22 7.4 45.4 43 -4.3 24.3
17:00 1025 30.27 854 25.22 7.7 45.9 42 -4.4 24.1
17:05 1025 30.27 854 25.22 7.1 44.7 45 -4.1 24.6
17:10 1025 30.27 854 25.22 7 44.7 46 -3.7 25.4
17:15 1025 30.27 854 25.22 7.2 44.9 45 -4 24.7
17:20 1025 30.27 854 25.22 7.1 44.8 46 -3.8 25.1
17:25 1025 30.27 854 25.22 6.8 44.3 45 -4.4 24
17:30 1025 30.27 854 25.22 6.5 43.7 46 -4.2 24.4
17:35 1025 30.27 854 25.22 6.1 43 48 -4.1 24.7
17:40 1025 30.27 854 25.22 5.9 42.6 49 -4.1 24.6
17:45 1025 30.27 854 25.22 5.6 42 50 -3.9 24.9
17:50 1025 30.27 854 25.22 5.1 41.3 53 -3.7 25.3
17:55 1025 30.27 854 25.22 5 41 53 -3.8 25.2
18:00 1025 30.27 854 25.22 4.8 40.7 53 -4.1 24.7
18:05 1025 30.27 854 25.22 4.7 40.4 52 -4.3 24.3
18:10 1025 30.27 854 25.22 4.7 40.4 53 -4 24.7
18:15 1025 30.27 854 25.22 4.6 40.2 54 -4 24.8
18:20 1025 30.27 854 25.22 4.4 39.9 53 -4.4 24
18:25 1025 30.27 854 25.22 4.3 39.7 53 -4.4 24
18:30 1025 30.27 854 25.22 4.2 39.6 53 -4.6 23.7
18:35 1025 30.27 854 25.22 4.1 39.4 52 -4.8 23.3
18:40 1025 30.27 854 25.22 4 39.2 53 -4.6 23.7
18:45 1024 30.24 854 25.22 3.9 39 55 -4.4 24.1
18:50 1024 30.24 854 25.22 3.9 38.9 53 -4.8 23.4
18:55 1024 30.24 854 25.22 4.1 39.4 53 -4.6 23.8
19:00 1024 30.24 854 25.22 4.3 39.8 53 -4.3 24.2
19:05 1024 30.24 853 25.19 3.7 38.7 55 -4.4 24.2
19:10 1024 30.24 853 25.19 3.4 38.1 55 -4.7 23.5
19:15 1024 30.24 853 25.19 3.4 38.1 56 -4.6 23.8
19:20 1024 30.24 853 25.19 3.3 37.9 56 -4.7 23.5
19:25 1024 30.24 853 25.19 3.4 38.1 54 -5.1 22.8
19:30 1024 30.24 853 25.19 3.5 38.2 54 -5.1 22.9
19:35 1024 30.24 853 25.19 3.5 38.3 53 -5.2 22.7
19:40 1024 30.24 853 25.19 3.6 38.5 53 -5 22.9
19:45 1024 30.24 853 25.19 3.7 38.6 53 -4.9 23.1
19:50 1024 30.24 853 25.19 3.7 38.6 53 -5.1 22.9
19:55 1024 30.24 853 25.19 3.6 38.5 53 -5.2 22.6
20:00 1024 30.24 853 25.19 3.6 38.5 54 -4.9 23.1
20:05 1024 30.24 853 25.19 3.4 38.1 54 -5 23.1
20:10 1024 30.24 853 25.19 3.1 37.5 55 -5.2 22.7
20:15 1024 30.24 853 25.19 3 37.4 54 -5.4 22.3
20:20 1024 30.24 853 25.19 3.1 37.5 54 -5.2 22.6
20:25 1024 30.24 853 25.19 3.4 38 52 -5.6 21.9
20:30 1024 30.24 853 25.19 3.6 38.5 51 -5.6 22
20:35 1024 30.24 853 25.19 3.7 38.7 51 -5.4 22.2
20:40 1024 30.24 853 25.19 3.6 38.5 52 -5.4 22.4
20:45 1024 30.24 853 25.19 3.3 37.9 54 -5.2 22.7
20:50 1024 30.24 853 25.19 3.1 37.6 54 -5.3 22.4
20:55 1024 30.24 853 25.19 3.1 37.6 54 -5.3 22.5
21:00 1024 30.24 853 25.19 2.9 37.3 55 -5.3 22.4
21:05 1024 30.24 853 25.19 3.1 37.5 54 -5.4 22.3
21:10 1024 30.24 853 25.19 3 37.4 55 -5.2 22.7
21:15 1024 30.24 853 25.19 2.7 36.9 56 -5.1 22.8
21:20 1024 30.24 853 25.19 2.5 36.6 56 -5.3 22.4
21:25 1024 30.24 853 25.19 2.5 36.6 55 -5.7 21.7
21:30 1024 30.24 853 25.19 2.4 36.4 55 -5.6 21.8
21:35 1024 30.24 853 25.19 2.3 36.2 56 -5.6 22
21:40 1024 30.24 854 25.22 2.3 36.2 56 -5.6 21.9
21:45 1024 30.24 854 25.22 2.5 36.6 55 -5.6 21.9
21:50 1024 30.24 853 25.19 2.6 36.7 55 -5.6 21.9
21:55 1024 30.24 854 25.22 2.6 36.7 55 -5.5 22
22:00 1024 30.24 854 25.22 2.5 36.6 56 -5.5 22.2
22:05 1024 30.24 854 25.22 2.4 36.3 56 -5.5 22.1
22:10 1024 30.24 854 25.22 2.2 36 57 -5.4 22.2
22:15 1024 30.24 854 25.22 2 35.7 58 -5.4 22.2
22:20 1024 30.24 854 25.22 1.8 35.2 58 -5.6 22
22:25 1024 30.24 854 25.22 1.6 34.9 59 -5.7 21.8
22:30 1024 30.24 854 25.22 1.4 34.5 59 -5.7 21.7
22:35 1024 30.24 854 25.22 1.4 34.5 58 -5.9 21.3
22:40 1024 30.24 854 25.22 1.5 34.7 57 -6 21.2
22:45 1024 30.24 854 25.22 1.5 34.7 58 -6 21.2
22:50 1024 30.24 854 25.22 1.5 34.8 58 -5.9 21.5
22:55 1024 30.24 853 25.19 1.5 34.7 58 -5.9 21.3
23:00 1024 30.24 853 25.19 1.5 34.7 58 -5.9 21.4
23:05 1024 30.24 854 25.22 1.6 34.8 57 -6 21.2
23:10 1024 30.24 853 25.19 1.4 34.6 58 -5.9 21.3
23:15 1024 30.24 853 25.19 1.3 34.3 58 -6.1 21.1
23:20 1024 30.24 854 25.22 1.4 34.5 58 -5.9 21.3
23:25 1024 30.24 854 25.22 1.3 34.3 59 -5.9 21.3
23:30 1024 30.24 854 25.22 1.2 34.1 59 -6.1 21.1
23:35 1024 30.24 854 25.22 1.1 34 60 -5.9 21.4
23:40 1024 30.24 854 25.22 0.9 33.5 61 -5.9 21.3
23:45 1024 30.24 854 25.22 0.8 33.4 60 -6.1 21
23:50 1024 30.24 854 25.22 0.9 33.6 59 -6.1 21
23:55 1024 30.24 854 25.22 1 33.7 59 -6.3 20.7
24:00 1024 30.24 854 25.22 1 33.8 59 -6.2 20.8